Terminal Aerodrome Forecast
Issued by NWS

Home | Current Version | Previous Version | Text Only | Print | Product List | Glossary On
Versions: 1 2 3 4 5 6 7 8 9 10 11 12 13 14 15 16 17 18 19 20 21 22 23 24 25 26 27 28 29 30 31 32 33
004
FTUS43 KLOT 231126
TAFMDW
TAF
KMDW 231126Z 2312/2412 35010KT 6SM BR OVC008
      TEMPO 2314/2316 5SM BR OVC006
     FM231800 35009KT P6SM OVC015
     FM240100 33005KT P6SM OVC012
     FM240900 VRB03KT 5SM BR OVC009=

USA.gov is the U.S. government's official web portal to all federal, state and local government web resources and services.